sensor_id;sensor_type;location;lat;lon;timestamp;pressure;altitude;pressure_sealevel;temperature;humidity
29461;BME280;16428;47.836;35.106;2023-11-21T00:00:36;100774.97;;;1.02;100.00
29461;BME280;16428;47.836;35.106;2023-11-21T00:03:04;100774.44;;;0.86;100.00
29461;BME280;16428;47.836;35.106;2023-11-21T00:05:31;100785.09;;;1.08;100.00
29461;BME280;16428;47.836;35.106;2023-11-21T00:07:58;100778.25;;;0.82;100.00
29461;BME280;16428;47.836;35.106;2023-11-21T00:10:26;100779.38;;;0.90;100.00
29461;BME280;16428;47.836;35.106;2023-11-21T00:13:09;100779.41;;;0.78;100.00
29461;BME280;16428;47.836;35.106;2023-11-21T00:15:39;100775.09;;;0.77;100.00
29461;BME280;16428;47.836;35.106;2023-11-21T00:18:07;100783.91;;;0.64;100.00
29461;BME280;16428;47.836;35.106;2023-11-21T00:20:34;100794.97;;;0.82;100.00
29461;BME280;16428;47.836;35.106;2023-11-21T00:23:01;100785.44;;;0.80;100.00
29461;BME280;16428;47.836;35.106;2023-11-21T00:25:29;100799.97;;;0.74;100.00
29461;BME280;16428;47.836;35.106;2023-11-21T00:27:58;100804.75;;;0.93;100.00
29461;BME280;16428;47.836;35.106;2023-11-21T00:30:26;100799.50;;;0.80;100.00
29461;BME280;16428;47.836;35.106;2023-11-21T00:32:53;100807.06;;;0.74;100.00
29461;BME280;16428;47.836;35.106;2023-11-21T00:35:21;100813.94;;;0.76;100.00
29461;BME280;16428;47.836;35.106;2023-11-21T00:37:48;100803.47;;;0.75;100.00
29461;BME280;16428;47.836;35.106;2023-11-21T00:40:16;100803.50;;;0.62;100.00
29461;BME280;16428;47.836;35.106;2023-11-21T00:42:47;100813.88;;;0.52;100.00
29461;BME280;16428;47.836;35.106;2023-11-21T00:45:14;100815.44;;;0.67;100.00
29461;BME280;16428;47.836;35.106;2023-11-21T00:47:41;100801.94;;;0.83;100.00
29461;BME280;16428;47.836;35.106;2023-11-21T00:50:09;100810.97;;;0.92;100.00
29461;BME280;16428;47.836;35.106;2023-11-21T00:52:37;100807.91;;;0.74;100.00
29461;BME280;16428;47.836;35.106;2023-11-21T00:55:04;100805.44;;;0.84;100.00
29461;BME280;16428;47.836;35.106;2023-11-21T00:57:34;100803.22;;;0.78;100.00
29461;BME280;16428;47.836;35.106;2023-11-21T01:00:02;100808.34;;;0.92;100.00
29461;BME280;16428;47.836;35.106;2023-11-21T01:02:34;100801.59;;;0.88;100.00
29461;BME280;16428;47.836;35.106;2023-11-21T01:05:03;100807.63;;;0.90;100.00
29461;BME280;16428;47.836;35.106;2023-11-21T01:07:30;100815.09;;;0.96;100.00
29461;BME280;16428;47.836;35.106;2023-11-21T01:09:58;100803.47;;;0.75;100.00
29461;BME280;16428;47.836;35.106;2023-11-21T01:12:25;100816.16;;;0.69;100.00
29461;BME280;16428;47.836;35.106;2023-11-21T01:14:52;100813.34;;;0.84;100.00
29461;BME280;16428;47.836;35.106;2023-11-21T01:17:20;100811.03;;;0.79;100.00
29461;BME280;16428;47.836;35.106;2023-11-21T01:19:49;100810.75;;;0.95;100.00
29461;BME280;16428;47.836;35.106;2023-11-21T01:22:16;100815.09;;;0.72;100.00
29461;BME280;16428;47.836;35.106;2023-11-21T01:24:44;100811.94;;;0.67;100.00
29461;BME280;16428;47.836;35.106;2023-11-21T01:27:12;100818.88;;;0.81;100.00
29461;BME280;16428;47.836;35.106;2023-11-21T01:29:39;100823.16;;;0.70;100.00
29461;BME280;16428;47.836;35.106;2023-11-21T01:32:06;100827.69;;;0.92;100.00
29461;BME280;16428;47.836;35.106;2023-11-21T01:34:35;100834.34;;;0.98;100.00
29461;BME280;16428;47.836;35.106;2023-11-21T01:37:02;100839.38;;;0.90;100.00
29461;BME280;16428;47.836;35.106;2023-11-21T01:39:31;100842.28;;;0.98;100.00
29461;BME280;16428;47.836;35.106;2023-11-21T01:41:58;100838.13;;;0.83;100.00
29461;BME280;16428;47.836;35.106;2023-11-21T01:44:25;100839.41;;;1.01;100.00
29461;BME280;16428;47.836;35.106;2023-11-21T01:46:52;100833.81;;;1.05;100.00
29461;BME280;16428;47.836;35.106;2023-11-21T01:49:20;100842.78;;;1.03;100.00
29461;BME280;16428;47.836;35.106;2023-11-21T01:51:49;100836.31;;;1.07;100.00
29461;BME280;16428;47.836;35.106;2023-11-21T01:54:17;100836.63;;;0.91;100.00
29461;BME280;16428;47.836;35.106;2023-11-21T01:56:46;100836.00;;;0.88;100.00
29461;BME280;16428;47.836;35.106;2023-11-21T01:59:21;100844.56;;;0.79;100.00
29461;BME280;16428;47.836;35.106;2023-11-21T02:01:49;100833.66;;;0.83;100.00
29461;BME280;16428;47.836;35.106;2023-11-21T02:04:18;100839.28;;;0.79;100.00
29461;BME280;16428;47.836;35.106;2023-11-21T02:06:45;100853.06;;;0.71;100.00
29461;BME280;16428;47.836;35.106;2023-11-21T02:09:12;100837.69;;;0.89;100.00
29461;BME280;16428;47.836;35.106;2023-11-21T02:11:42;100855.22;;;0.90;100.00
29461;BME280;16428;47.836;35.106;2023-11-21T02:14:09;100847.22;;;0.79;100.00
29461;BME280;16428;47.836;35.106;2023-11-21T02:16:37;100846.16;;;0.81;100.00
29461;BME280;16428;47.836;35.106;2023-11-21T02:19:07;100850.38;;;0.84;100.00
29461;BME280;16428;47.836;35.106;2023-11-21T02:21:36;100847.41;;;0.88;100.00
29461;BME280;16428;47.836;35.106;2023-11-21T02:24:07;100859.09;;;0.97;100.00
29461;BME280;16428;47.836;35.106;2023-11-21T02:26:35;100850.44;;;0.95;100.00
29461;BME280;16428;47.836;35.106;2023-11-21T02:29:02;100859.63;;;1.02;100.00
29461;BME280;16428;47.836;35.106;2023-11-21T02:31:31;100861.81;;;1.08;100.00
29461;BME280;16428;47.836;35.106;2023-11-21T02:33:59;100871.91;;;1.03;100.00
29461;BME280;16428;47.836;35.106;2023-11-21T02:36:27;100881.16;;;1.09;100.00
29461;BME280;16428;47.836;35.106;2023-11-21T02:38:53;100881.41;;;1.05;100.00
29461;BME280;16428;47.836;35.106;2023-11-21T02:41:20;100894.56;;;0.94;100.00
29461;BME280;16428;47.836;35.106;2023-11-21T02:43:48;100894.19;;;1.12;100.00
29461;BME280;16428;47.836;35.106;2023-11-21T02:46:15;100890.69;;;1.11;100.00
29461;BME280;16428;47.836;35.106;2023-11-21T02:48:42;100902.16;;;0.99;100.00
29461;BME280;16428;47.836;35.106;2023-11-21T02:51:09;100893.09;;;0.90;100.00
29461;BME280;16428;47.836;35.106;2023-11-21T02:53:36;100892.22;;;1.02;100.00
29461;BME280;16428;47.836;35.106;2023-11-21T02:56:05;100888.31;;;0.95;100.00
29461;BME280;16428;47.836;35.106;2023-11-21T02:58:32;100896.66;;;1.02;100.00
29461;BME280;16428;47.836;35.106;2023-11-21T03:01:00;100900.03;;;1.04;100.00
29461;BME280;16428;47.836;35.106;2023-11-21T03:03:27;100897.59;;;1.01;100.00
29461;BME280;16428;47.836;35.106;2023-11-21T03:05:55;100904.59;;;1.02;100.00
29461;BME280;16428;47.836;35.106;2023-11-21T03:08:22;100908.47;;;1.09;100.00
29461;BME280;16428;47.836;35.106;2023-11-21T03:10:49;100911.63;;;1.14;100.00
29461;BME280;16428;47.836;35.106;2023-11-21T03:13:16;100917.97;;;1.12;100.00
29461;BME280;16428;47.836;35.106;2023-11-21T03:15:43;100916.56;;;0.95;100.00
29461;BME280;16428;47.836;35.106;2023-11-21T03:18:10;100923.28;;;1.12;100.00
29461;BME280;16428;47.836;35.106;2023-11-21T03:20:38;100926.59;;;1.26;100.00
29461;BME280;16428;47.836;35.106;2023-11-21T03:23:05;100927.72;;;1.11;100.00
29461;BME280;16428;47.836;35.106;2023-11-21T03:25:32;100926.06;;;0.97;100.00
29461;BME280;16428;47.836;35.106;2023-11-21T03:27:59;100933.22;;;1.08;100.00
29461;BME280;16428;47.836;35.106;2023-11-21T03:30:27;100927.09;;;1.08;100.00
29461;BME280;16428;47.836;35.106;2023-11-21T03:32:54;100927.94;;;1.08;100.00
29461;BME280;16428;47.836;35.106;2023-11-21T03:35:21;100927.25;;;0.93;100.00
29461;BME280;16428;47.836;35.106;2023-11-21T03:37:48;100935.38;;;1.03;100.00
29461;BME280;16428;47.836;35.106;2023-11-21T03:40:15;100935.53;;;0.89;100.00
29461;BME280;16428;47.836;35.106;2023-11-21T03:42:42;100934.16;;;0.83;100.00
29461;BME280;16428;47.836;35.106;2023-11-21T03:45:10;100930.97;;;0.91;100.00
29461;BME280;16428;47.836;35.106;2023-11-21T03:47:41;100941.63;;;1.02;100.00
29461;BME280;16428;47.836;35.106;2023-11-21T03:50:09;100947.72;;;1.15;100.00
29461;BME280;16428;47.836;35.106;2023-11-21T03:52:37;100948.66;;;1.14;100.00
29461;BME280;16428;47.836;35.106;2023-11-21T03:55:04;100952.47;;;1.10;100.00
29461;BME280;16428;47.836;35.106;2023-11-21T03:57:31;100953.97;;;1.14;100.00
29461;BME280;16428;47.836;35.106;2023-11-21T03:59:58;100952.47;;;1.10;100.00
29461;BME280;16428;47.836;35.106;2023-11-21T04:02:26;100958.09;;;1.18;100.00
29461;BME280;16428;47.836;35.106;2023-11-21T04:04:53;100969.09;;;1.12;100.00
29461;BME280;16428;47.836;35.106;2023-11-21T04:07:21;100975.81;;;0.92;100.00
29461;BME280;16428;47.836;35.106;2023-11-21T04:09:48;100969.06;;;0.88;100.00
29461;BME280;16428;47.836;35.106;2023-11-21T04:12:15;100970.50;;;1.05;100.00
29461;BME280;16428;47.836;35.106;2023-11-21T04:14:43;100970.56;;;1.16;100.00
29461;BME280;16428;47.836;35.106;2023-11-21T04:17:10;100968.22;;;1.24;100.00
29461;BME280;16428;47.836;35.106;2023-11-21T04:19:37;100966.91;;;1.06;100.00
29461;BME280;16428;47.836;35.106;2023-11-21T04:22:04;100976.75;;;1.04;100.00
29461;BME280;16428;47.836;35.106;2023-11-21T04:24:31;100980.41;;;1.14;100.00
29461;BME280;16428;47.836;35.106;2023-11-21T04:26:58;100981.81;;;1.07;100.00
29461;BME280;16428;47.836;35.106;2023-11-21T04:29:25;100983.81;;;1.16;100.00
29461;BME280;16428;47.836;35.106;2023-11-21T04:31:52;100985.88;;;1.24;100.00
29461;BME280;16428;47.836;35.106;2023-11-21T04:34:19;100987.22;;;1.05;100.00
29461;BME280;16428;47.836;35.106;2023-11-21T04:36:46;100989.38;;;0.88;100.00
29461;BME280;16428;47.836;35.106;2023-11-21T04:39:14;100985.53;;;0.92;100.00
29461;BME280;16428;47.836;35.106;2023-11-21T04:41:40;100997.56;;;1.21;100.00
29461;BME280;16428;47.836;35.106;2023-11-21T04:44:08;101000.84;;;1.12;100.00
29461;BME280;16428;47.836;35.106;2023-11-21T04:46:35;100996.53;;;0.98;100.00
29461;BME280;16428;47.836;35.106;2023-11-21T04:49:02;101006.81;;;1.03;100.00
29461;BME280;16428;47.836;35.106;2023-11-21T04:51:29;101000.25;;;0.96;100.00
29461;BME280;16428;47.836;35.106;2023-11-21T04:53:56;101005.63;;;0.94;100.00
29461;BME280;16428;47.836;35.106;2023-11-21T04:56:23;101009.44;;;1.03;100.00
29461;BME280;16428;47.836;35.106;2023-11-21T04:58:50;101018.97;;;0.93;100.00
29461;BME280;16428;47.836;35.106;2023-11-21T05:01:17;101031.97;;;1.09;100.00
29461;BME280;16428;47.836;35.106;2023-11-21T05:03:44;101034.50;;;1.10;100.00
29461;BME280;16428;47.836;35.106;2023-11-21T05:06:13;101036.63;;;0.92;100.00
29461;BME280;16428;47.836;35.106;2023-11-21T05:08:41;101032.09;;;0.94;100.00
29461;BME280;16428;47.836;35.106;2023-11-21T05:11:08;101031.25;;;0.81;100.00
29461;BME280;16428;47.836;35.106;2023-11-21T05:13:37;101042.34;;;0.99;100.00
29461;BME280;16428;47.836;35.106;2023-11-21T05:16:06;101046.19;;;0.69;100.00
29461;BME280;16428;47.836;35.106;2023-11-21T05:18:34;101056.56;;;0.73;100.00
29461;BME280;16428;47.836;35.106;2023-11-21T05:21:02;101042.03;;;0.65;100.00
29461;BME280;16428;47.836;35.106;2023-11-21T05:23:29;101046.72;;;0.75;100.00
29461;BME280;16428;47.836;35.106;2023-11-21T05:25:56;101056.44;;;0.87;100.00
29461;BME280;16428;47.836;35.106;2023-11-21T05:28:24;101061.72;;;0.74;100.00
29461;BME280;16428;47.836;35.106;2023-11-21T05:30:51;101057.16;;;0.63;100.00
29461;BME280;16428;47.836;35.106;2023-11-21T05:33:36;101066.38;;;0.70;100.00
29461;BME280;16428;47.836;35.106;2023-11-21T05:36:03;101069.78;;;0.73;100.00
29461;BME280;16428;47.836;35.106;2023-11-21T05:38:30;101067.63;;;0.65;100.00
29461;BME280;16428;47.836;35.106;2023-11-21T05:40:57;101077.16;;;0.67;100.00
29461;BME280;16428;47.836;35.106;2023-11-21T05:43:25;101080.84;;;0.78;100.00
29461;BME280;16428;47.836;35.106;2023-11-21T05:45:52;101081.81;;;0.77;100.00
29461;BME280;16428;47.836;35.106;2023-11-21T05:48:19;101097.81;;;0.88;100.00
29461;BME280;16428;47.836;35.106;2023-11-21T05:50:47;101106.47;;;0.90;100.00
29461;BME280;16428;47.836;35.106;2023-11-21T05:53:18;101102.91;;;0.91;100.00
29461;BME280;16428;47.836;35.106;2023-11-21T05:55:45;101105.31;;;0.94;100.00
29461;BME280;16428;47.836;35.106;2023-11-21T05:58:12;101108.69;;;0.96;100.00
29461;BME280;16428;47.836;35.106;2023-11-21T06:00:40;101114.72;;;0.98;100.00
29461;BME280;16428;47.836;35.106;2023-11-21T06:03:08;101109.88;;;1.04;100.00
29461;BME280;16428;47.836;35.106;2023-11-21T06:05:35;101122.66;;;0.85;100.00
29461;BME280;16428;47.836;35.106;2023-11-21T06:08:03;101120.75;;;1.00;100.00
29461;BME280;16428;47.836;35.106;2023-11-21T06:10:30;101118.41;;;0.83;100.00
29461;BME280;16428;47.836;35.106;2023-11-21T06:12:57;101120.97;;;0.97;100.00
29461;BME280;16428;47.836;35.106;2023-11-21T06:15:29;101128.59;;;0.89;100.00
29461;BME280;16428;47.836;35.106;2023-11-21T06:17:56;101128.91;;;0.84;100.00
29461;BME280;16428;47.836;35.106;2023-11-21T06:20:24;101127.53;;;0.91;100.00
29461;BME280;16428;47.836;35.106;2023-11-21T06:22:51;101130.81;;;0.95;100.00
29461;BME280;16428;47.836;35.106;2023-11-21T06:25:19;101139.69;;;0.94;100.00
29461;BME280;16428;47.836;35.106;2023-11-21T06:27:48;101126.16;;;0.86;100.00
29461;BME280;16428;47.836;35.106;2023-11-21T06:30:15;101133.03;;;0.76;100.00
29461;BME280;16428;47.836;35.106;2023-11-21T06:32:43;101124.75;;;0.93;100.00
29461;BME280;16428;47.836;35.106;2023-11-21T06:35:14;101117.16;;;1.01;100.00
29461;BME280;16428;47.836;35.106;2023-11-21T06:37:44;101127.94;;;0.98;100.00
29461;BME280;16428;47.836;35.106;2023-11-21T06:40:17;101130.06;;;1.18;100.00
29461;BME280;16428;47.836;35.106;2023-11-21T06:42:48;101136.22;;;1.06;100.00
29461;BME280;16428;47.836;35.106;2023-11-21T06:45:17;101139.16;;;1.14;100.00
29461;BME280;16428;47.836;35.106;2023-11-21T06:47:44;101129.44;;;1.15;100.00
29461;BME280;16428;47.836;35.106;2023-11-21T06:50:12;101131.53;;;1.22;100.00
29461;BME280;16428;47.836;35.106;2023-11-21T06:52:39;101135.78;;;1.12;100.00
29461;BME280;16428;47.836;35.106;2023-11-21T06:55:07;101127.00;;;0.99;100.00
29461;BME280;16428;47.836;35.106;2023-11-21T06:57:36;101128.50;;;1.03;100.00
29461;BME280;16428;47.836;35.106;2023-11-21T07:00:04;101140.66;;;1.18;100.00
29461;BME280;16428;47.836;35.106;2023-11-21T07:02:32;101141.50;;;1.31;100.00
29461;BME280;16428;47.836;35.106;2023-11-21T07:04:59;101139.28;;;1.00;100.00
29461;BME280;16428;47.836;35.106;2023-11-21T07:07:27;101145.31;;;1.02;100.00
29461;BME280;16428;47.836;35.106;2023-11-21T07:09:55;101140.97;;;1.26;100.00
29461;BME280;16428;47.836;35.106;2023-11-21T07:12:22;101145.00;;;1.32;100.00
29461;BME280;16428;47.836;35.106;2023-11-21T07:14:50;101135.25;;;1.32;100.00
29461;BME280;16428;47.836;35.106;2023-11-21T07:17:17;101133.84;;;1.52;100.00
29461;BME280;16428;47.836;35.106;2023-11-21T07:19:44;101134.25;;;1.59;100.00
29461;BME280;16428;47.836;35.106;2023-11-21T07:22:12;101144.53;;;1.63;100.00
29461;BME280;16428;47.836;35.106;2023-11-21T07:24:42;101142.72;;;1.64;100.00
29461;BME280;16428;47.836;35.106;2023-11-21T07:27:10;101135.94;;;1.60;100.00
29461;BME280;16428;47.836;35.106;2023-11-21T07:29:37;101150.16;;;1.95;100.00
29461;BME280;16428;47.836;35.106;2023-11-21T07:32:04;101152.50;;;1.87;100.00
29461;BME280;16428;47.836;35.106;2023-11-21T07:34:32;101148.25;;;1.97;100.00
29461;BME280;16428;47.836;35.106;2023-11-21T07:36:59;101163.69;;;2.03;100.00
29461;BME280;16428;47.836;35.106;2023-11-21T07:39:26;101175.84;;;1.82;100.00
29461;BME280;16428;47.836;35.106;2023-11-21T07:41:54;101167.06;;;1.69;100.00
29461;BME280;16428;47.836;35.106;2023-11-21T07:44:21;101183.72;;;1.58;100.00
29461;BME280;16428;47.836;35.106;2023-11-21T07:46:48;101181.63;;;1.51;100.00
29461;BME280;16428;47.836;35.106;2023-11-21T07:49:17;101187.63;;;1.65;100.00
29461;BME280;16428;47.836;35.106;2023-11-21T07:51:47;101191.47;;;1.36;100.00
29461;BME280;16428;47.836;35.106;2023-11-21T07:54:15;101196.53;;;1.64;100.00
29461;BME280;16428;47.836;35.106;2023-11-21T07:56:43;101211.25;;;1.43;100.00
29461;BME280;16428;47.836;35.106;2023-11-21T07:59:10;101207.56;;;1.46;100.00
29461;BME280;16428;47.836;35.106;2023-11-21T08:01:37;101194.19;;;1.09;100.00
29461;BME280;16428;47.836;35.106;2023-11-21T08:04:07;101193.56;;;1.44;100.00
29461;BME280;16428;47.836;35.106;2023-11-21T08:06:35;101205.53;;;1.62;100.00
29461;BME280;16428;47.836;35.106;2023-11-21T08:09:02;101203.72;;;1.75;100.00
29461;BME280;16428;47.836;35.106;2023-11-21T08:11:29;101188.72;;;1.50;100.00
29461;BME280;16428;47.836;35.106;2023-11-21T08:13:59;101191.38;;;1.37;100.00
29461;BME280;16428;47.836;35.106;2023-11-21T08:16:26;101190.59;;;1.61;100.00
29461;BME280;16428;47.836;35.106;2023-11-21T08:18:55;101186.16;;;1.61;100.00
29461;BME280;16428;47.836;35.106;2023-11-21T08:21:22;101182.59;;;1.37;100.00
29461;BME280;16428;47.836;35.106;2023-11-21T08:23:52;101181.50;;;1.39;100.00
29461;BME280;16428;47.836;35.106;2023-11-21T08:26:21;101178.34;;;1.22;100.00
29461;BME280;16428;47.836;35.106;2023-11-21T08:28:49;101182.69;;;1.35;100.00
29461;BME280;16428;47.836;35.106;2023-11-21T08:31:16;101181.72;;;1.36;100.00
29461;BME280;16428;47.836;35.106;2023-11-21T08:33:43;101186.06;;;1.37;100.00
29461;BME280;16428;47.836;35.106;2023-11-21T08:36:10;101187.53;;;1.16;100.00
29461;BME280;16428;47.836;35.106;2023-11-21T08:38:39;101180.44;;;1.29;100.00
29461;BME280;16428;47.836;35.106;2023-11-21T08:41:07;101186.78;;;1.27;100.00
29461;BME280;16428;47.836;35.106;2023-11-21T08:43:35;101196.88;;;1.34;100.00
29461;BME280;16428;47.836;35.106;2023-11-21T08:46:07;101179.78;;;1.38;100.00
29461;BME280;16428;47.836;35.106;2023-11-21T08:48:38;101182.16;;;1.30;100.00
29461;BME280;16428;47.836;35.106;2023-11-21T08:51:06;101184.06;;;1.16;100.00
29461;BME280;16428;47.836;35.106;2023-11-21T08:53:33;101174.72;;;1.10;100.00
29461;BME280;16428;47.836;35.106;2023-11-21T08:56:00;101173.38;;;1.17;100.00
29461;BME280;16428;47.836;35.106;2023-11-21T08:58:28;101171.75;;;1.27;100.00
29461;BME280;16428;47.836;35.106;2023-11-21T09:00:55;101172.19;;;1.34;100.00
29461;BME280;16428;47.836;35.106;2023-11-21T09:03:22;101177.81;;;1.29;100.00
29461;BME280;16428;47.836;35.106;2023-11-21T09:05:50;101169.22;;;1.38;100.00
29461;BME280;16428;47.836;35.106;2023-11-21T09:08:18;101171.22;;;1.22;100.00
29461;BME280;16428;47.836;35.106;2023-11-21T09:10:45;101162.97;;;1.39;100.00
29461;BME280;16428;47.836;35.106;2023-11-21T09:13:14;101162.66;;;1.31;100.00
29461;BME280;16428;47.836;35.106;2023-11-21T09:15:43;101164.75;;;1.39;100.00
29461;BME280;16428;47.836;35.106;2023-11-21T09:18:13;101170.69;;;1.42;100.00
29461;BME280;16428;47.836;35.106;2023-11-21T09:20:42;101166.25;;;1.43;100.00
29461;BME280;16428;47.836;35.106;2023-11-21T09:23:10;101168.66;;;1.59;100.00
29461;BME280;16428;47.836;35.106;2023-11-21T09:25:38;101172.72;;;1.52;100.00
29461;BME280;16428;47.836;35.106;2023-11-21T09:28:06;101176.59;;;1.59;100.00
29461;BME280;16428;47.836;35.106;2023-11-21T09:30:36;101175.75;;;1.58;100.00
29461;BME280;16428;47.836;35.106;2023-11-21T09:33:03;101178.09;;;1.63;100.00
29461;BME280;16428;47.836;35.106;2023-11-21T09:35:35;101178.25;;;1.85;100.00
29461;BME280;16428;47.836;35.106;2023-11-21T09:38:02;101175.59;;;1.98;100.00
29461;BME280;16428;47.836;35.106;2023-11-21T09:40:32;101180.00;;;2.34;100.00
29461;BME280;16428;47.836;35.106;2023-11-21T09:43:01;101188.69;;;2.36;100.00
29461;BME280;16428;47.836;35.106;2023-11-21T09:45:35;101198.34;;;2.13;100.00
29461;BME280;16428;47.836;35.106;2023-11-21T09:48:03;101193.06;;;2.48;100.00
29461;BME280;16428;47.836;35.106;2023-11-21T09:50:32;101198.19;;;2.27;100.00
29461;BME280;16428;47.836;35.106;2023-11-21T09:53:20;101205.72;;;2.21;100.00
29461;BME280;16428;47.836;35.106;2023-11-21T09:55:54;101210.00;;;2.10;100.00
29461;BME280;16428;47.836;35.106;2023-11-21T09:58:22;101211.81;;;2.34;100.00
29461;BME280;16428;47.836;35.106;2023-11-21T10:00:57;101214.50;;;2.21;99.03
29461;BME280;16428;47.836;35.106;2023-11-21T10:03:27;101214.09;;;2.15;100.00
29461;BME280;16428;47.836;35.106;2023-11-21T10:05:56;101221.22;;;2.01;100.00
29461;BME280;16428;47.836;35.106;2023-11-21T10:08:27;101214.41;;;2.23;100.00
29461;BME280;16428;47.836;35.106;2023-11-21T10:11:14;101229.50;;;2.09;100.00
29461;BME280;16428;47.836;35.106;2023-11-21T10:13:43;101222.88;;;1.79;100.00
29461;BME280;16428;47.836;35.106;2023-11-21T10:16:15;101222.44;;;1.85;100.00
29461;BME280;16428;47.836;35.106;2023-11-21T10:18:52;101217.78;;;1.88;100.00
29461;BME280;16428;47.836;35.106;2023-11-21T10:21:38;101233.97;;;1.96;100.00
29461;BME280;16428;47.836;35.106;2023-11-21T10:24:07;101228.28;;;1.77;100.00
29461;BME280;16428;47.836;35.106;2023-11-21T10:26:35;101231.63;;;2.04;100.00
29461;BME280;16428;47.836;35.106;2023-11-21T10:29:18;101228.22;;;2.02;100.00
29461;BME280;16428;47.836;35.106;2023-11-21T10:31:49;101238.75;;;1.91;98.71
29461;BME280;16428;47.836;35.106;2023-11-21T10:34:18;101236.28;;;2.14;100.00
29461;BME280;16428;47.836;35.106;2023-11-21T10:36:46;101234.41;;;1.90;100.00
29461;BME280;16428;47.836;35.106;2023-11-21T10:39:16;101241.31;;;1.93;100.00
29461;BME280;16428;47.836;35.106;2023-11-21T10:41:47;101246.28;;;1.97;100.00
29461;BME280;16428;47.836;35.106;2023-11-21T10:44:19;101252.16;;;2.26;99.59
29461;BME280;16428;47.836;35.106;2023-11-21T10:46:54;101250.50;;;1.87;100.00
29461;BME280;16428;47.836;35.106;2023-11-21T10:49:27;101247.66;;;1.90;100.00
29461;BME280;16428;47.836;35.106;2023-11-21T10:51:55;101256.44;;;2.03;100.00
29461;BME280;16428;47.836;35.106;2023-11-21T10:54:24;101254.94;;;2.12;100.00
29461;BME280;16428;47.836;35.106;2023-11-21T10:57:03;101255.50;;;1.92;96.29
29461;BME280;16428;47.836;35.106;2023-11-21T10:59:31;101247.66;;;1.90;99.95
29461;BME280;16428;47.836;35.106;2023-11-21T11:02:01;101257.81;;;2.09;100.00
29461;BME280;16428;47.836;35.106;2023-11-21T11:04:34;101242.50;;;2.25;100.00
29461;BME280;16428;47.836;35.106;2023-11-21T11:07:08;101246.63;;;2.17;97.13
29461;BME280;16428;47.836;35.106;2023-11-21T11:09:36;101247.44;;;2.30;97.44
29461;BME280;16428;47.836;35.106;2023-11-21T11:12:04;101243.03;;;2.18;99.85
29461;BME280;16428;47.836;35.106;2023-11-21T11:14:34;101248.66;;;2.26;96.40
29461;BME280;16428;47.836;35.106;2023-11-21T11:17:02;101243.78;;;2.20;100.00
29461;BME280;16428;47.836;35.106;2023-11-21T11:19:32;101239.69;;;2.39;100.00
29461;BME280;16428;47.836;35.106;2023-11-21T11:35:32;101242.13;;;2.90;100.00
29461;BME280;16428;47.836;35.106;2023-11-21T11:38:01;101260.31;;;2.60;93.56
29461;BME280;16428;47.836;35.106;2023-11-21T11:40:42;101261.63;;;2.65;94.62
29461;BME280;16428;47.836;35.106;2023-11-21T11:43:12;101269.38;;;2.68;94.67
29461;BME280;16428;47.836;35.106;2023-11-21T11:45:40;101264.00;;;3.05;95.06
29461;BME280;16428;47.836;35.106;2023-11-21T11:48:13;101262.88;;;3.31;95.47
29461;BME280;16428;47.836;35.106;2023-11-21T11:51:02;101270.41;;;3.48;92.78
29461;BME280;16428;47.836;35.106;2023-11-21T11:53:36;101270.91;;;3.87;94.16
29461;BME280;16428;47.836;35.106;2023-11-21T11:56:30;101278.38;;;3.82;91.71
29461;BME280;16428;47.836;35.106;2023-11-21T11:59:00;101281.53;;;3.65;83.50
29461;BME280;16428;47.836;35.106;2023-11-21T12:01:33;101286.25;;;3.72;87.74
29461;BME280;16428;47.836;35.106;2023-11-21T12:07:02;101287.63;;;3.08;90.49
29461;BME280;16428;47.836;35.106;2023-11-21T12:09:31;101292.56;;;3.36;89.35
29461;BME280;16428;47.836;35.106;2023-11-21T12:11:59;101294.72;;;3.31;85.28
29461;BME280;16428;47.836;35.106;2023-11-21T12:14:27;101293.72;;;3.21;91.20
29461;BME280;16428;47.836;35.106;2023-11-21T12:16:56;101299.09;;;3.08;92.17
29461;BME280;16428;47.836;35.106;2023-11-21T12:19:23;101309.19;;;3.27;87.31
29461;BME280;16428;47.836;35.106;2023-11-21T12:21:51;101311.78;;;3.05;89.02
29461;BME280;16428;47.836;35.106;2023-11-21T12:24:19;101314.88;;;2.99;90.56
29461;BME280;16428;47.836;35.106;2023-11-21T12:26:46;101310.13;;;3.15;86.80
29461;BME280;16428;47.836;35.106;2023-11-21T12:29:13;101319.44;;;2.97;91.24
29461;BME280;16428;47.836;35.106;2023-11-21T12:31:41;101318.50;;;2.98;91.12
29461;BME280;16428;47.836;35.106;2023-11-21T12:34:09;101321.09;;;3.22;89.14
29461;BME280;16428;47.836;35.106;2023-11-21T12:36:38;101326.22;;;3.01;87.68
29461;BME280;16428;47.836;35.106;2023-11-21T12:39:07;101338.88;;;2.73;89.54
29461;BME280;16428;47.836;35.106;2023-11-21T12:41:36;101332.88;;;2.46;91.23
29461;BME280;16428;47.836;35.106;2023-11-21T12:44:03;101329.34;;;2.22;91.10
29461;BME280;16428;47.836;35.106;2023-11-21T12:46:31;101334.41;;;2.37;91.28
29461;BME280;16428;47.836;35.106;2023-11-21T12:49:01;101332.50;;;2.39;90.77
29461;BME280;16428;47.836;35.106;2023-11-21T12:51:28;101340.03;;;2.20;95.56
29461;BME280;16428;47.836;35.106;2023-11-21T12:53:56;101342.16;;;2.28;96.37
29461;BME280;16428;47.836;35.106;2023-11-21T12:56:25;101358.28;;;2.25;95.59
29461;BME280;16428;47.836;35.106;2023-11-21T12:58:54;101361.94;;;2.47;91.54
29461;BME280;16428;47.836;35.106;2023-11-21T13:01:25;101358.06;;;2.28;93.57
29461;BME280;16428;47.836;35.106;2023-11-21T13:03:57;101357.97;;;2.04;94.30